createdAt,value
2023-01-03T00:01:57.613Z,101707.06
2023-01-03T00:04:25.384Z,101709.50
2023-01-03T00:06:55.043Z,101718.13
2023-01-03T00:09:24.258Z,101717.78
2023-01-03T00:12:12.980Z,101724.06
2023-01-03T00:14:43.832Z,101727.56
2023-01-03T00:17:13.941Z,101732.03
2023-01-03T00:19:43.852Z,101732.88
2023-01-03T00:22:13.073Z,101730.34
2023-01-03T00:24:41.022Z,101724.47
2023-01-03T00:27:08.893Z,101731.94
2023-01-03T00:29:36.947Z,101725.66
2023-01-03T00:32:05.463Z,101727.47
2023-01-03T00:34:35.032Z,101726.50
2023-01-03T00:37:03.017Z,101730.63
2023-01-03T00:39:30.755Z,101721.19
2023-01-03T00:41:58.515Z,101726.28
2023-01-03T00:44:26.370Z,101721.47
2023-01-03T00:46:54.093Z,101726.53
2023-01-03T00:49:21.858Z,101722.44
2023-01-03T00:51:53.749Z,101726.78
2023-01-03T00:54:22.269Z,101729.19
2023-01-03T00:56:51.518Z,101736.44
2023-01-03T00:59:20.976Z,101740.31
2023-01-03T01:01:50.685Z,101738.63
2023-01-03T01:04:20.562Z,101747.53
2023-01-03T01:06:50.031Z,101748.72
2023-01-03T01:09:21.132Z,101743.06
2023-01-03T01:11:50.947Z,101740.78
2023-01-03T01:14:21.527Z,101740.41
2023-01-03T01:16:51.205Z,101755.50
2023-01-03T01:19:22.163Z,101741.00
2023-01-03T01:21:54.518Z,101750.91
2023-01-03T01:24:25.222Z,101756.94
2023-01-03T01:26:55.395Z,101755.16
2023-01-03T01:29:28.162Z,101758.28
2023-01-03T01:31:56.153Z,101758.63
2023-01-03T01:34:24.209Z,101763.84
2023-01-03T01:36:52.174Z,101766.25
2023-01-03T01:39:22.045Z,101767.81
2023-01-03T01:42:19.046Z,101773.50
2023-01-03T01:44:52.172Z,101771.34
2023-01-03T01:47:27.489Z,101771.56
2023-01-03T01:50:00.355Z,101772.75
2023-01-03T01:52:29.538Z,101777.72
2023-01-03T01:54:58.870Z,101776.13
2023-01-03T01:57:28.336Z,101778.78
2023-01-03T01:59:56.012Z,101786.50
2023-01-03T02:02:24.608Z,101774.47
2023-01-03T02:04:56.555Z,101777.13
2023-01-03T02:07:24.761Z,101777.69
2023-01-03T02:09:56.329Z,101779.38
2023-01-03T02:12:53.960Z,101792.91
2023-01-03T02:15:33.900Z,101778.69
2023-01-03T02:18:16.064Z,101782.91
2023-01-03T02:21:03.315Z,101780.00
2023-01-03T02:23:55.840Z,101784.22
2023-01-03T02:26:45.726Z,101783.50
2023-01-03T02:29:35.888Z,101784.84
2023-01-03T02:32:10.581Z,101777.22
2023-01-03T02:34:44.181Z,101781.34
2023-01-03T02:37:21.251Z,101773.72
2023-01-03T02:39:55.223Z,101772.63
2023-01-03T02:42:46.145Z,101765.91
2023-01-03T02:45:18.238Z,101768.56
2023-01-03T02:47:53.278Z,101757.94
2023-01-03T02:50:25.757Z,101762.50
2023-01-03T02:52:57.907Z,101761.19
2023-01-03T02:55:29.372Z,101765.50
2023-01-03T02:58:03.062Z,101755.72
2023-01-03T03:00:33.945Z,101766.63
2023-01-03T03:03:09.755Z,101770.44
2023-01-03T03:05:43.537Z,101766.47
2023-01-03T03:08:11.301Z,101765.84
2023-01-03T03:10:58.611Z,101760.31
2023-01-03T03:13:34.576Z,101767.56
2023-01-03T03:16:06.891Z,101771.16
2023-01-03T03:18:45.471Z,101776.47
2023-01-03T03:21:35.229Z,101778.16
2023-01-03T03:24:28.108Z,101786.34
2023-01-03T03:26:58.531Z,101784.53
2023-01-03T03:29:27.714Z,101792.16
2023-01-03T03:31:56.886Z,101794.09
2023-01-03T03:34:30.524Z,101795.66
2023-01-03T03:37:04.042Z,101789.16
2023-01-03T03:39:51.162Z,101789.28
2023-01-03T03:42:53.996Z,101788.56
2023-01-03T03:45:27.474Z,101791.09
2023-01-03T03:48:03.050Z,101802.31
2023-01-03T03:50:37.656Z,101803.38
2023-01-03T03:53:09.033Z,101803.00
2023-01-03T03:55:40.584Z,101802.78
2023-01-03T03:58:12.497Z,101803.63
2023-01-03T04:00:42.887Z,101810.75
2023-01-03T04:03:12.802Z,101804.44
2023-01-03T04:05:45.841Z,101806.47
2023-01-03T04:08:13.608Z,101804.22
2023-01-03T04:10:41.694Z,101812.50
2023-01-03T04:13:09.391Z,101811.91
2023-01-03T04:15:37.104Z,101813.38
2023-01-03T04:18:04.898Z,101812.88
2023-01-03T04:20:32.589Z,101818.63
2023-01-03T04:23:01.838Z,101818.94
2023-01-03T04:25:29.499Z,101825.84
2023-01-03T04:27:57.185Z,101821.09
2023-01-03T04:30:24.928Z,101822.84
2023-01-03T04:32:52.582Z,101821.34
2023-01-03T04:35:20.305Z,101836.41
2023-01-03T04:37:47.979Z,101828.06
2023-01-03T04:40:17.261Z,101826.38
2023-01-03T04:43:02.364Z,101822.75
2023-01-03T04:45:30.048Z,101814.59
2023-01-03T04:47:57.744Z,101820.66
2023-01-03T04:50:25.513Z,101825.38
2023-01-03T04:52:56.187Z,101832.44
2023-01-03T04:55:26.593Z,101830.63
2023-01-03T04:57:54.340Z,101829.50
2023-01-03T05:00:22.244Z,101830.28
2023-01-03T05:02:49.981Z,101826.78
2023-01-03T05:05:17.733Z,101821.41
2023-01-03T05:07:45.448Z,101824.03
2023-01-03T05:10:13.111Z,101818.00
2023-01-03T05:12:42.143Z,101825.19
2023-01-03T05:15:10.777Z,101834.34
2023-01-03T05:17:38.466Z,101838.97
2023-01-03T05:20:24.732Z,101846.84
2023-01-03T05:23:10.191Z,101842.38
2023-01-03T05:25:54.168Z,101847.56
2023-01-03T05:28:24.857Z,101844.63
2023-01-03T05:30:53.482Z,101846.22
2023-01-03T05:33:21.160Z,101846.22
2023-01-03T05:35:50.902Z,101845.91
2023-01-03T05:38:18.578Z,101846.41
2023-01-03T05:40:50.154Z,101854.03
2023-01-03T05:43:17.915Z,101856.88
2023-01-03T05:45:51.508Z,101859.22
2023-01-03T05:48:22.637Z,101855.28
2023-01-03T05:50:51.090Z,101850.44
2023-01-03T05:53:19.082Z,101848.41
2023-01-03T05:55:46.785Z,101850.84
2023-01-03T05:58:14.435Z,101857.00
2023-01-03T06:00:43.768Z,101850.63
2023-01-03T06:03:12.787Z,101847.28
2023-01-03T06:05:46.130Z,101853.50
2023-01-03T06:08:17.536Z,101850.13
2023-01-03T06:10:45.255Z,101859.44
2023-01-03T06:13:13.303Z,101849.28
2023-01-03T06:15:41.018Z,101858.91
2023-01-03T06:18:07.695Z,101863.56
2023-01-03T06:20:36.719Z,101864.00
2023-01-03T06:23:04.473Z,101866.94
2023-01-03T06:25:32.150Z,101865.44
2023-01-03T06:27:59.840Z,101870.03
2023-01-03T06:30:27.655Z,101878.47
2023-01-03T06:32:55.414Z,101870.97
2023-01-03T06:35:23.082Z,101880.28
2023-01-03T06:37:52.141Z,101880.38
2023-01-03T06:40:20.030Z,101882.63
2023-01-03T06:42:47.693Z,101875.09
2023-01-03T06:45:33.046Z,101876.13
2023-01-03T06:48:22.779Z,101877.31
2023-01-03T06:51:08.597Z,101892.94
2023-01-03T06:53:39.449Z,101884.25
2023-01-03T06:56:08.312Z,101883.81
2023-01-03T06:58:36.723Z,101893.13
2023-01-03T07:01:06.158Z,101886.66
2023-01-03T07:03:34.540Z,101882.97
2023-01-03T07:06:02.229Z,101883.06
2023-01-03T07:08:29.970Z,101882.50
2023-01-03T07:10:59.067Z,101883.59
2023-01-03T07:13:44.375Z,101899.09
2023-01-03T07:16:15.607Z,101901.50
2023-01-03T07:18:45.922Z,101904.81
2023-01-03T07:21:18.510Z,101895.59
2023-01-03T07:23:46.159Z,101893.56
2023-01-03T07:26:15.255Z,101893.47
2023-01-03T07:28:43.299Z,101896.63
2023-01-03T07:31:11.145Z,101900.38
2023-01-03T07:33:40.099Z,101900.69
2023-01-03T07:36:12.034Z,101911.13
2023-01-03T07:38:41.331Z,101915.16
2023-01-03T07:41:09.435Z,101914.66
2023-01-03T07:43:39.991Z,101919.34
2023-01-03T07:46:10.133Z,101921.22
2023-01-03T07:48:38.124Z,101931.22
2023-01-03T07:51:06.817Z,101928.47
2023-01-03T07:53:35.424Z,101934.41
2023-01-03T07:56:10.812Z,101939.44
2023-01-03T07:58:43.070Z,101941.13
2023-01-03T08:01:13.163Z,101946.19
2023-01-03T08:03:41.727Z,101945.34
2023-01-03T08:06:11.321Z,101950.97
2023-01-03T08:08:39.580Z,101953.81
2023-01-03T08:11:25.929Z,101963.44
2023-01-03T08:13:54.952Z,101966.28
2023-01-03T08:16:22.890Z,101969.06
2023-01-03T08:18:51.114Z,101967.97
2023-01-03T08:21:19.197Z,101966.28
2023-01-03T08:23:48.697Z,101969.59
2023-01-03T08:26:17.636Z,101972.81
2023-01-03T08:28:45.893Z,101979.00
2023-01-03T08:31:19.269Z,101978.00
2023-01-03T08:33:50.905Z,101978.75
2023-01-03T08:36:19.714Z,101976.53
2023-01-03T08:38:54.510Z,101982.41
2023-01-03T08:41:25.058Z,101982.41
2023-01-03T08:43:54.310Z,101973.50
2023-01-03T08:46:23.677Z,101983.16
2023-01-03T08:48:51.718Z,101988.00
2023-01-03T08:51:19.434Z,101998.31
2023-01-03T08:53:47.266Z,101994.72
2023-01-03T08:56:15.023Z,102007.44
2023-01-03T08:58:42.714Z,101994.09
2023-01-03T09:01:11.480Z,102000.22
2023-01-03T09:03:41.066Z,101998.97
2023-01-03T09:06:09.134Z,102006.28
2023-01-03T09:08:37.063Z,102002.13
2023-01-03T09:11:06.600Z,102012.28
2023-01-03T09:13:34.352Z,102012.97
2023-01-03T09:16:02.922Z,102015.69
2023-01-03T09:18:30.821Z,102015.16
2023-01-03T09:21:00.013Z,102019.41
2023-01-03T09:23:27.707Z,102016.13
2023-01-03T09:25:55.482Z,102016.13
2023-01-03T09:28:23.332Z,102014.41
2023-01-03T09:30:51.184Z,102024.97
2023-01-03T09:33:19.012Z,102018.13
2023-01-03T09:35:46.756Z,102009.69
2023-01-03T09:38:15.836Z,102016.72
2023-01-03T09:40:47.167Z,102020.06
2023-01-03T09:43:24.718Z,102012.28
2023-01-03T09:45:56.649Z,102015.16
2023-01-03T09:48:30.562Z,102004.56
2023-01-03T09:51:18.453Z,102005.66
2023-01-03T09:54:04.818Z,102001.88
2023-01-03T09:56:53.384Z,101996.78
2023-01-03T09:59:38.691Z,102008.38
2023-01-03T10:02:50.547Z,101999.91
2023-01-03T10:05:30.231Z,101997.25
2023-01-03T10:08:14.147Z,102004.81
2023-01-03T10:10:52.446Z,102006.03
2023-01-03T10:13:32.884Z,101998.78
2023-01-03T10:16:08.610Z,102004.06
2023-01-03T10:18:51.553Z,102005.34
2023-01-03T10:21:27.794Z,101994.88
2023-01-03T10:23:56.266Z,102001.50
2023-01-03T10:26:32.639Z,102006.94
2023-01-03T10:29:01.645Z,102004.75
2023-01-03T10:31:43.092Z,102005.41
2023-01-03T10:34:12.623Z,102003.41
2023-01-03T10:36:40.311Z,101994.53
2023-01-03T10:39:09.711Z,101993.19
2023-01-03T10:41:44.021Z,101987.94
2023-01-03T10:44:24.826Z,101984.28
2023-01-03T10:46:54.595Z,101980.97
2023-01-03T10:49:28.908Z,101984.47
2023-01-03T10:52:01.124Z,101992.72
2023-01-03T10:54:36.854Z,101982.59
2023-01-03T10:57:06.890Z,101986.06
2023-01-03T10:59:37.269Z,101989.41
2023-01-03T11:02:17.216Z,101986.47
2023-01-03T11:04:45.323Z,101987.97
2023-01-03T11:07:16.801Z,101986.00
2023-01-03T11:09:51.711Z,101985.31
2023-01-03T11:12:29.974Z,101980.28
2023-01-03T11:14:58.853Z,101970.81
2023-01-03T11:17:32.890Z,101968.50
2023-01-03T11:20:00.675Z,101966.59
2023-01-03T11:22:42.852Z,101970.38
2023-01-03T11:25:21.097Z,101977.16
2023-01-03T11:28:15.740Z,101962.03
2023-01-03T11:30:55.818Z,101964.63
2023-01-03T11:33:38.779Z,101961.38
2023-01-03T11:36:25.885Z,101962.13
2023-01-03T11:39:06.441Z,101956.22
2023-01-03T11:41:58.121Z,101953.16
2023-01-03T11:44:47.354Z,101957.00
2023-01-03T11:47:28.683Z,101959.06
2023-01-03T11:50:09.708Z,101950.09
2023-01-03T11:52:45.284Z,101954.72
2023-01-03T11:55:35.906Z,101953.59
2023-01-03T11:58:21.072Z,101949.19
2023-01-03T12:00:56.118Z,101944.25
2023-01-03T12:03:36.798Z,101950.66
2023-01-03T12:06:11.934Z,101942.75
2023-01-03T12:08:50.770Z,101939.22
2023-01-03T12:11:36.803Z,101938.69
2023-01-03T12:14:14.441Z,101937.47
2023-01-03T12:16:46.623Z,101941.69
2023-01-03T12:19:26.917Z,101936.63
2023-01-03T12:21:59.829Z,101926.34
2023-01-03T12:24:34.050Z,101925.31
2023-01-03T12:27:05.582Z,101920.41
2023-01-03T12:29:40.898Z,101924.63
2023-01-03T12:32:16.580Z,101918.34
2023-01-03T12:34:51.458Z,101925.50
2023-01-03T12:37:24.230Z,101921.19
2023-01-03T12:39:56.615Z,101919.53
2023-01-03T12:42:36.942Z,101918.13
2023-01-03T12:45:24.474Z,101915.34
2023-01-03T12:47:57.795Z,101909.13
2023-01-03T12:50:32.025Z,101917.00
2023-01-03T12:53:06.801Z,101910.41
2023-01-03T12:55:49.314Z,101908.31
2023-01-03T12:58:37.044Z,101904.69
2023-01-03T13:01:10.178Z,101898.63
2023-01-03T13:03:43.005Z,101901.56
2023-01-03T13:06:17.121Z,101904.03
2023-01-03T13:08:49.465Z,101907.00
2023-01-03T13:11:22.913Z,101903.47
2023-01-03T13:13:54.355Z,101899.78
2023-01-03T13:16:53.137Z,101899.31
2023-01-03T13:19:56.210Z,101892.94
2023-01-03T13:22:47.754Z,101891.22
2023-01-03T13:25:34.212Z,101886.78
2023-01-03T13:28:07.115Z,101892.13
2023-01-03T13:30:36.878Z,101884.41
2023-01-03T13:33:19.592Z,101890.06
2023-01-03T13:36:00.503Z,101885.03
2023-01-03T13:38:31.564Z,101887.53
2023-01-03T13:41:21.643Z,101886.69
2023-01-03T13:43:52.721Z,101884.16
2023-01-03T13:46:23.767Z,101883.44
2023-01-03T13:48:58.269Z,101887.47
2023-01-03T13:51:49.693Z,101890.81
2023-01-03T13:54:55.868Z,101884.63
2023-01-03T13:57:38.300Z,101874.06
2023-01-03T14:00:18.659Z,101879.25
2023-01-03T14:03:17.759Z,101880.09
2023-01-03T14:06:15.194Z,101877.31
2023-01-03T14:09:16.277Z,101878.75
2023-01-03T14:12:22.493Z,101876.75
2023-01-03T14:14:57.370Z,101868.09
2023-01-03T14:17:29.352Z,101871.69
2023-01-03T14:20:03.597Z,101874.06
2023-01-03T14:22:39.505Z,101874.63
2023-01-03T14:25:08.383Z,101873.41
2023-01-03T14:27:40.816Z,101882.38
2023-01-03T14:30:21.929Z,101884.44
2023-01-03T14:32:49.768Z,101888.72
2023-01-03T14:35:34.568Z,101888.72
2023-01-03T14:38:06.738Z,101885.63
2023-01-03T14:40:35.264Z,101889.97
2023-01-03T14:43:06.267Z,101885.03
2023-01-03T14:45:34.011Z,101892.44
2023-01-03T14:48:01.757Z,101896.06
2023-01-03T14:50:33.414Z,101895.22
2023-01-03T14:53:02.704Z,101903.69
2023-01-03T14:55:32.854Z,101906.75
2023-01-03T14:58:03.713Z,101906.31
2023-01-03T15:00:36.150Z,101907.41
2023-01-03T15:03:05.144Z,101910.06
2023-01-03T15:05:35.078Z,101909.97
2023-01-03T15:08:10.771Z,101920.63
2023-01-03T15:10:45.648Z,101915.53
2023-01-03T15:13:20.787Z,101921.13
2023-01-03T15:15:56.267Z,101923.78
2023-01-03T15:18:26.067Z,101929.09
2023-01-03T15:20:55.685Z,101927.53
2023-01-03T15:23:38.503Z,101928.88
2023-01-03T15:26:07.870Z,101923.31
2023-01-03T15:28:38.876Z,101923.59
2023-01-03T15:31:29.681Z,101930.94
2023-01-03T15:34:02.768Z,101935.91
2023-01-03T15:36:33.313Z,101936.28
2023-01-03T15:39:01.080Z,101942.19
2023-01-03T15:41:50.450Z,101935.91
2023-01-03T15:44:25.639Z,101937.72
2023-01-03T15:46:58.147Z,101935.91
2023-01-03T15:49:27.443Z,101935.44
2023-01-03T15:51:55.314Z,101936.38
2023-01-03T15:54:23.391Z,101942.44
2023-01-03T15:56:55.897Z,101941.25
2023-01-03T15:59:26.240Z,101945.09
2023-01-03T16:01:55.975Z,101942.09
2023-01-03T16:04:25.049Z,101933.66
2023-01-03T16:06:53.549Z,101938.25
2023-01-03T16:09:21.861Z,101944.16
2023-01-03T16:11:57.281Z,101947.53
2023-01-03T16:14:33.414Z,101948.25
2023-01-03T16:17:03.497Z,101950.91
2023-01-03T16:19:32.572Z,101948.25
2023-01-03T16:22:33.863Z,101949.25
2023-01-03T16:24:51.411Z,101950.69
2023-01-03T16:27:21.752Z,101953.34
2023-01-03T16:29:49.720Z,101950.41
2023-01-03T16:32:22.552Z,101954.88
2023-01-03T16:34:51.192Z,101956.91
2023-01-03T16:37:21.907Z,101960.06
2023-01-03T16:39:49.682Z,101953.78
2023-01-03T16:42:18.976Z,101956.06
2023-01-03T16:44:47.845Z,101968.00
2023-01-03T16:47:18.198Z,101972.94
2023-01-03T16:49:51.427Z,101966.38
2023-01-03T16:52:25.437Z,101951.69
2023-01-03T16:54:53.973Z,101954.34
2023-01-03T16:57:23.085Z,101950.59
2023-01-03T16:59:51.176Z,101955.47
2023-01-03T17:02:19.027Z,101949.53
2023-01-03T17:04:48.155Z,101946.97
2023-01-03T17:07:20.152Z,101958.03
2023-01-03T17:09:52.619Z,101953.44
2023-01-03T17:12:24.643Z,101952.94
2023-01-03T17:14:52.983Z,101946.06
2023-01-03T17:17:22.507Z,101952.41
2023-01-03T17:20:07.396Z,101953.09
2023-01-03T17:22:35.217Z,101953.78
2023-01-03T17:25:03.130Z,101958.06
2023-01-03T17:27:33.037Z,101953.22
2023-01-03T17:30:03.026Z,101952.31
2023-01-03T17:32:31.198Z,101951.56
2023-01-03T17:35:00.739Z,101957.41
2023-01-03T17:37:28.486Z,101948.88
2023-01-03T17:39:58.063Z,101958.06
2023-01-03T17:42:28.807Z,101955.19
2023-01-03T17:45:22.321Z,101961.22
2023-01-03T17:48:07.768Z,101948.31
2023-01-03T17:50:36.861Z,101960.03
2023-01-03T17:53:04.581Z,101955.22
2023-01-03T17:55:32.326Z,101959.47
2023-01-03T17:58:01.848Z,101959.16
2023-01-03T18:00:30.561Z,101953.25
2023-01-03T18:03:00.415Z,101947.81
2023-01-03T18:05:30.071Z,101953.84
2023-01-03T18:08:01.783Z,101952.63
2023-01-03T18:10:33.566Z,101951.78
2023-01-03T18:13:01.305Z,101949.03
2023-01-03T18:15:29.134Z,101949.22
2023-01-03T18:17:56.909Z,101947.91
2023-01-03T18:20:26.459Z,101950.16
2023-01-03T18:22:54.276Z,101957.16
2023-01-03T18:25:26.115Z,101958.16
2023-01-03T18:27:57.441Z,101969.63
2023-01-03T18:30:25.299Z,101957.78
2023-01-03T18:32:53.109Z,101953.84
2023-01-03T18:35:28.350Z,101951.88
2023-01-03T18:37:57.628Z,101939.31
2023-01-03T18:40:28.022Z,101950.38
2023-01-03T18:43:12.742Z,101948.13
2023-01-03T18:45:42.063Z,101951.53
2023-01-03T18:48:14.631Z,101954.69
2023-01-03T18:50:42.871Z,101958.56
2023-01-03T18:53:16.848Z,101959.09
2023-01-03T18:55:46.325Z,101961.22
2023-01-03T18:58:21.501Z,101965.06
2023-01-03T19:00:49.289Z,101967.44
2023-01-03T19:03:22.831Z,101961.50
2023-01-03T19:05:51.224Z,101960.91
2023-01-03T19:08:20.987Z,101962.81
2023-01-03T19:10:51.022Z,101961.84
2023-01-03T19:13:26.411Z,101968.00
2023-01-03T19:15:55.263Z,101964.72
2023-01-03T19:18:23.459Z,101962.56
2023-01-03T19:20:51.840Z,101959.91
2023-01-03T19:23:25.925Z,101969.06
2023-01-03T19:25:55.931Z,101964.44
2023-01-03T19:28:28.770Z,101964.13
2023-01-03T19:30:56.646Z,101965.75
2023-01-03T19:33:24.711Z,101968.00
2023-01-03T19:35:52.401Z,101965.72
2023-01-03T19:38:20.101Z,101966.50
2023-01-03T19:40:47.907Z,101952.31
2023-01-03T19:43:23.436Z,101955.72
2023-01-03T19:45:51.157Z,101956.13
2023-01-03T19:48:21.222Z,101952.72
2023-01-03T19:50:49.888Z,101964.50
2023-01-03T19:53:17.573Z,101953.47
2023-01-03T19:55:47.298Z,101953.03
2023-01-03T19:58:20.292Z,101960.44
2023-01-03T20:00:49.637Z,101957.47
2023-01-03T20:03:26.900Z,101953.13
2023-01-03T20:05:54.764Z,101958.13
2023-01-03T20:08:22.756Z,101952.06
2023-01-03T20:10:52.508Z,101953.75
2023-01-03T20:13:23.708Z,101946.16
2023-01-03T20:15:54.004Z,101941.72
2023-01-03T20:18:26.403Z,101940.25
2023-01-03T20:20:56.331Z,101934.84
2023-01-03T20:23:24.410Z,101935.50
2023-01-03T20:25:52.325Z,101929.22
2023-01-03T20:28:29.046Z,101927.75
2023-01-03T20:30:57.494Z,101921.41
2023-01-03T20:33:26.050Z,101922.53
2023-01-03T20:36:11.189Z,101916.31
2023-01-03T20:38:41.223Z,101910.59
2023-01-03T20:41:12.367Z,101908.91
2023-01-03T20:43:41.889Z,101904.97
2023-01-03T20:46:15.422Z,101897.75
2023-01-03T20:48:43.236Z,101898.94
2023-01-03T20:51:13.659Z,101898.72
2023-01-03T20:53:43.222Z,101898.56
2023-01-03T20:56:13.542Z,101896.16
2023-01-03T20:58:42.928Z,101894.97
2023-01-03T21:01:11.097Z,101886.91
2023-01-03T21:03:39.566Z,101879.53
2023-01-03T21:06:17.697Z,101875.00
2023-01-03T21:08:57.950Z,101876.25
2023-01-03T21:11:28.043Z,101876.03
2023-01-03T21:13:58.117Z,101874.88
2023-01-03T21:16:34.522Z,101874.06
2023-01-03T21:19:04.084Z,101873.75
2023-01-03T21:21:33.282Z,101879.00
2023-01-03T21:24:01.973Z,101880.38
2023-01-03T21:26:29.738Z,101874.16
2023-01-03T21:28:59.487Z,101882.19
2023-01-03T21:31:28.002Z,101879.72
2023-01-03T21:33:56.340Z,101878.59
2023-01-03T21:36:26.405Z,101885.13
2023-01-03T21:38:54.408Z,101882.22
2023-01-03T21:41:24.542Z,101882.78
2023-01-03T21:43:55.681Z,101883.00
2023-01-03T21:46:25.914Z,101889.97
2023-01-03T21:48:54.417Z,101882.88
2023-01-03T21:51:33.420Z,101890.16
2023-01-03T21:54:06.275Z,101886.56
2023-01-03T21:56:36.093Z,101892.00
2023-01-03T21:59:04.457Z,101889.34
2023-01-03T22:01:53.625Z,101876.09
2023-01-03T22:04:20.459Z,101864.13
2023-01-03T22:06:48.404Z,101859.44
2023-01-03T22:09:30.141Z,101853.91
2023-01-03T22:11:57.803Z,101848.72
2023-01-03T22:14:25.761Z,101860.13
2023-01-03T22:16:55.192Z,101868.59
2023-01-03T22:19:22.942Z,101864.47
2023-01-03T22:21:50.654Z,101850.59
2023-01-03T22:24:18.385Z,101858.63
2023-01-03T22:26:46.121Z,101856.94
2023-01-03T22:29:13.772Z,101852.81
2023-01-03T22:31:41.628Z,101846.84
2023-01-03T22:34:10.721Z,101854.13
2023-01-03T22:36:38.427Z,101857.56
2023-01-03T22:39:06.154Z,101856.81
2023-01-03T22:41:33.824Z,101863.16
2023-01-03T22:44:01.476Z,101860.78
2023-01-03T22:46:29.362Z,101864.94
2023-01-03T22:48:57.420Z,101862.47
2023-01-03T22:51:26.423Z,101861.34
2023-01-03T22:53:54.164Z,101864.94
2023-01-03T22:56:21.819Z,101866.66
2023-01-03T22:58:49.514Z,101862.09
2023-01-03T23:01:19.087Z,101865.66
2023-01-03T23:03:48.143Z,101861.34
2023-01-03T23:06:17.877Z,101860.59
2023-01-03T23:08:51.142Z,101862.09
2023-01-03T23:11:46.858Z,101856.66
2023-01-03T23:14:16.527Z,101846.09
2023-01-03T23:16:44.378Z,101845.25
2023-01-03T23:19:13.650Z,101839.59
2023-01-03T23:21:41.779Z,101836.97
2023-01-03T23:24:14.874Z,101833.25
2023-01-03T23:26:43.140Z,101834.38
2023-01-03T23:29:12.110Z,101817.03
2023-01-03T23:31:39.882Z,101813.41
2023-01-03T23:34:08.427Z,101814.03
2023-01-03T23:36:36.186Z,101815.84
2023-01-03T23:39:04.237Z,101808.75
2023-01-03T23:41:34.474Z,101813.19
2023-01-03T23:44:02.174Z,101813.28
2023-01-03T23:46:29.981Z,101816.69
2023-01-03T23:48:58.878Z,101806.66
2023-01-03T23:51:27.539Z,101811.63
2023-01-03T23:53:55.578Z,101814.13
2023-01-03T23:56:24.921Z,101831.69
2023-01-03T23:58:54.153Z,101828.38
